createdAt,value
2022-10-29T00:00:44.034Z,46.80
2022-10-29T00:07:01.332Z,45.80
2022-10-29T00:13:15.942Z,46.10
2022-10-29T00:19:33.006Z,46.60
2022-10-29T00:25:49.187Z,47.00
2022-10-29T00:32:02.501Z,47.50
2022-10-29T00:38:16.775Z,47.20
2022-10-29T00:44:39.042Z,47.40
2022-10-29T00:50:52.218Z,47.50
2022-10-29T00:57:10.934Z,47.20
2022-10-29T01:03:21.994Z,47.50
2022-10-29T01:09:35.215Z,47.00
2022-10-29T01:15:51.799Z,46.90
2022-10-29T01:22:02.680Z,46.70
2022-10-29T01:28:24.254Z,46.80
2022-10-29T01:34:43.153Z,47.00
2022-10-29T01:40:56.515Z,47.00
2022-10-29T01:47:12.396Z,46.90
2022-10-29T01:53:27.909Z,46.60
2022-10-29T01:59:54.952Z,46.70
2022-10-29T02:06:03.636Z,46.80
2022-10-29T02:12:19.899Z,46.70
2022-10-29T02:18:33.400Z,46.60
2022-10-29T02:24:47.049Z,46.30
2022-10-29T02:30:57.746Z,46.30
2022-10-29T02:37:10.108Z,46.50
2022-10-29T02:43:28.099Z,46.40
2022-10-29T02:49:43.665Z,46.40
2022-10-29T02:55:59.049Z,46.10
2022-10-29T03:02:15.577Z,46.40
2022-10-29T03:08:31.368Z,46.50
2022-10-29T03:14:44.807Z,46.80
2022-10-29T03:20:57.903Z,47.00
2022-10-29T03:27:10.252Z,46.90
2022-10-29T03:33:26.617Z,47.40
2022-10-29T03:39:40.860Z,47.70
2022-10-29T03:45:58.544Z,48.10
2022-10-29T03:52:12.756Z,47.90
2022-10-29T03:58:22.372Z,48.10
2022-10-29T04:04:40.172Z,48.00
2022-10-29T04:10:56.892Z,47.90
2022-10-29T04:17:10.325Z,47.90
2022-10-29T04:29:38.150Z,47.30
2022-10-29T04:35:52.901Z,47.10
2022-10-29T04:42:08.364Z,47.70
2022-10-29T04:48:22.563Z,47.00
2022-10-29T04:54:35.750Z,46.90
2022-10-29T05:00:51.301Z,47.10
2022-10-29T05:07:08.146Z,47.10
2022-10-29T05:13:22.438Z,47.10
2022-10-29T05:19:33.328Z,47.20
2022-10-29T05:25:51.511Z,47.30
2022-10-29T05:32:06.190Z,47.70
2022-10-29T05:38:19.701Z,48.00
2022-10-29T05:44:35.276Z,48.10
2022-10-29T05:50:48.427Z,48.00
2022-10-29T05:57:05.095Z,47.80
2022-10-29T06:03:18.244Z,47.80
2022-10-29T06:09:33.758Z,47.70
2022-10-29T06:15:46.792Z,47.60
2022-10-29T06:22:00.299Z,47.30
2022-10-29T06:28:15.416Z,47.30
2022-10-29T06:34:31.372Z,47.30
2022-10-29T06:40:46.764Z,47.30
2022-10-29T06:47:02.239Z,47.10
2022-10-29T06:53:14.815Z,46.90
2022-10-29T06:59:29.258Z,46.80
2022-10-29T07:05:39.877Z,46.90
2022-10-29T07:11:55.163Z,46.80
2022-10-29T07:18:11.351Z,46.70
2022-10-29T07:24:25.704Z,46.40
2022-10-29T07:30:41.258Z,46.60
2022-10-29T07:36:56.877Z,46.50
2022-10-29T07:43:07.727Z,46.60
2022-10-29T07:49:21.649Z,46.40
2022-10-29T07:55:35.973Z,46.20
2022-10-29T08:01:49.437Z,46.50
2022-10-29T08:08:03.724Z,46.40
2022-10-29T08:14:18.904Z,46.40
2022-10-29T08:20:28.682Z,46.10
2022-10-29T08:26:41.703Z,46.10
2022-10-29T08:33:01.160Z,46.30
2022-10-29T08:39:15.111Z,46.40
2022-10-29T08:45:33.458Z,46.30
2022-10-29T08:51:49.076Z,46.10
2022-10-29T08:58:02.812Z,46.00
2022-10-29T09:04:25.724Z,46.10
2022-10-29T09:10:39.545Z,46.10
2022-10-29T09:16:55.282Z,46.70
2022-10-29T09:23:14.788Z,46.10
2022-10-29T09:30:04.290Z,46.10
2022-10-29T09:36:18.304Z,46.30
2022-10-29T09:42:35.517Z,45.90
2022-10-29T09:48:51.639Z,45.90
2022-10-29T09:55:06.358Z,46.30
2022-10-29T10:01:21.895Z,46.00
2022-10-29T10:07:37.404Z,45.90
2022-10-29T10:14:00.578Z,46.00
2022-10-29T10:20:18.181Z,45.90
2022-10-29T10:26:39.678Z,46.00
2022-10-29T10:32:57.196Z,46.10
2022-10-29T10:39:09.507Z,46.00
2022-10-29T10:45:22.971Z,46.00
2022-10-29T10:51:41.434Z,46.00
2022-10-29T10:57:57.210Z,46.00
2022-10-29T11:04:18.275Z,46.00
2022-10-29T11:10:33.705Z,46.00
2022-10-29T11:16:46.503Z,46.00
2022-10-29T11:23:04.816Z,45.50
2022-10-29T11:29:18.349Z,45.30
2022-10-29T11:35:34.464Z,45.20
2022-10-29T11:41:54.403Z,45.30
2022-10-29T11:48:16.402Z,45.40
2022-10-29T11:54:35.589Z,45.30
2022-10-29T12:00:59.841Z,45.30
2022-10-29T12:07:21.748Z,45.00
2022-10-29T12:13:43.265Z,44.70
2022-10-29T12:20:00.379Z,45.40
2022-10-29T12:26:16.593Z,45.70
2022-10-29T12:32:33.211Z,45.80
2022-10-29T12:38:54.382Z,45.20
2022-10-29T12:45:48.098Z,45.10
2022-10-29T12:58:30.205Z,46.00
2022-10-29T13:04:42.345Z,46.00
2022-10-29T13:11:05.657Z,45.20
2022-10-29T13:17:33.691Z,44.90
2022-10-29T13:23:45.161Z,45.30
2022-10-29T13:30:00.674Z,46.20
2022-10-29T13:36:23.678Z,46.10
2022-10-29T13:42:39.405Z,45.00
2022-10-29T13:48:54.968Z,45.40
2022-10-29T13:55:10.534Z,45.80
2022-10-29T14:01:23.979Z,45.70
2022-10-29T14:07:42.784Z,45.90
2022-10-29T14:13:57.922Z,46.10
2022-10-29T14:20:13.266Z,46.00
2022-10-29T14:26:27.014Z,46.40
2022-10-29T14:32:39.456Z,46.70
2022-10-29T14:38:54.463Z,46.80
2022-10-29T14:45:09.460Z,46.70
2022-10-29T14:51:31.186Z,46.30
2022-10-29T14:58:03.796Z,46.00
2022-10-29T15:04:26.485Z,45.40
2022-10-29T15:10:43.905Z,45.10
2022-10-29T15:17:00.368Z,44.80
2022-10-29T15:23:19.003Z,44.40
2022-10-29T15:29:36.221Z,44.20
2022-10-29T15:35:50.312Z,44.10
2022-10-29T15:42:05.316Z,44.10
2022-10-29T15:48:39.211Z,43.80
2022-10-29T15:54:56.574Z,43.60
2022-10-29T16:01:09.085Z,43.40
2022-10-29T16:07:25.475Z,43.30
2022-10-29T16:13:41.822Z,43.10
2022-10-29T16:19:55.447Z,43.00
2022-10-29T16:26:11.965Z,42.70
2022-10-29T16:32:28.514Z,42.70
2022-10-29T16:38:47.031Z,42.80
2022-10-29T16:45:01.321Z,42.60
2022-10-29T16:51:14.106Z,42.60
2022-10-29T16:57:32.177Z,42.40
2022-10-29T17:03:48.191Z,42.50
2022-10-29T17:10:01.481Z,43.10
2022-10-29T17:16:18.649Z,42.60
2022-10-29T17:22:32.411Z,42.50
2022-10-29T17:28:44.858Z,42.40
2022-10-29T17:34:59.612Z,42.50
2022-10-29T17:41:17.651Z,43.00
2022-10-29T17:47:28.901Z,42.30
2022-10-29T17:53:51.850Z,42.10
2022-10-29T18:00:06.146Z,42.10
2022-10-29T18:06:20.450Z,42.70
2022-10-29T18:12:35.482Z,42.20
2022-10-29T18:19:00.829Z,42.30
2022-10-29T18:25:03.933Z,42.60
2022-10-29T18:31:19.489Z,42.70
2022-10-29T18:37:33.342Z,42.40
2022-10-29T18:43:46.077Z,43.00
2022-10-29T18:50:00.230Z,42.60
2022-10-29T18:56:18.365Z,42.70
2022-10-29T19:02:32.802Z,42.70
2022-10-29T19:08:47.806Z,43.00
2022-10-29T19:15:03.397Z,43.60
2022-10-29T19:21:17.883Z,43.20
2022-10-29T19:27:30.298Z,43.30
2022-10-29T19:33:39.993Z,43.20
2022-10-29T19:39:59.262Z,43.40
2022-10-29T19:46:18.044Z,43.40
2022-10-29T19:52:29.866Z,43.30
2022-10-29T19:58:47.864Z,43.20
2022-10-29T20:05:03.511Z,43.50
2022-10-29T20:11:13.782Z,43.70
2022-10-29T20:17:27.289Z,44.40
2022-10-29T20:23:38.305Z,43.60
2022-10-29T20:29:53.090Z,43.10
2022-10-29T20:36:04.051Z,43.10
2022-10-29T20:42:19.772Z,43.40
2022-10-29T20:48:30.466Z,43.40
2022-10-29T20:54:41.350Z,43.60
2022-10-29T21:00:52.501Z,43.70
2022-10-29T21:07:08.317Z,43.70
2022-10-29T21:13:18.746Z,43.70
2022-10-29T21:19:33.263Z,43.80
2022-10-29T21:25:49.094Z,44.40
2022-10-29T21:32:05.988Z,44.10
2022-10-29T21:38:18.605Z,43.80
2022-10-29T21:44:30.695Z,43.90
2022-10-29T21:50:41.598Z,43.90
2022-10-29T21:56:57.107Z,43.50
2022-10-29T22:03:08.222Z,43.30
2022-10-29T22:09:20.569Z,43.50
2022-10-29T22:15:33.862Z,43.80
2022-10-29T22:21:50.533Z,44.00
2022-10-29T22:28:02.906Z,44.00
2022-10-29T22:34:15.100Z,44.10
2022-10-29T22:40:28.510Z,44.20
2022-10-29T22:46:40.330Z,44.10
2022-10-29T22:52:51.594Z,44.30
2022-10-29T22:59:02.624Z,44.20
2022-10-29T23:05:16.252Z,43.60
2022-10-29T23:11:30.840Z,44.10
2022-10-29T23:17:41.351Z,44.10
2022-10-29T23:23:55.422Z,44.10
2022-10-29T23:30:11.759Z,44.00
2022-10-29T23:36:26.289Z,43.60
2022-10-29T23:42:35.974Z,44.00
2022-10-29T23:48:52.515Z,44.10
2022-10-29T23:54:59.856Z,44.40
